createdAt,value
2019-05-18T00:04:46.523Z,8.97
2019-05-18T00:09:51.783Z,8.95
2019-05-18T00:14:55.148Z,8.85
2019-05-18T00:19:58.428Z,8.82
2019-05-18T00:25:01.727Z,8.68
2019-05-18T00:30:06.970Z,8.72
2019-05-18T00:35:10.427Z,8.60
2019-05-18T00:40:13.849Z,8.51
2019-05-18T00:45:17.462Z,8.40
2019-05-18T00:50:20.825Z,8.34
2019-05-18T00:55:24.127Z,8.23
2019-05-18T01:00:27.422Z,8.17
2019-05-18T01:05:30.768Z,8.19
2019-05-18T01:10:34.050Z,7.71
2019-05-18T01:15:37.385Z,7.95
2019-05-18T01:20:40.757Z,7.60
2019-05-18T01:25:44.715Z,7.43
2019-05-18T01:30:48.035Z,7.22
2019-05-18T01:35:51.329Z,7.39
2019-05-18T01:40:54.609Z,7.47
2019-05-18T01:45:58.008Z,7.45
2019-05-18T01:51:01.389Z,7.44
2019-05-18T01:56:04.739Z,7.48
2019-05-18T02:01:08.097Z,7.07
2019-05-18T02:06:11.473Z,6.98
2019-05-18T02:11:14.763Z,7.27
2019-05-18T02:16:18.097Z,7.29
2019-05-18T02:21:21.464Z,6.86
2019-05-18T02:26:24.853Z,7.12
2019-05-18T02:31:28.161Z,6.72
2019-05-18T02:36:31.481Z,6.85
2019-05-18T02:41:34.860Z,6.90
2019-05-18T02:46:38.169Z,6.67
2019-05-18T02:51:41.489Z,6.77
2019-05-18T02:56:44.817Z,6.59
2019-05-18T03:01:48.121Z,6.63
2019-05-18T03:06:51.479Z,6.60
2019-05-18T03:11:54.867Z,6.54
2019-05-18T03:16:58.229Z,6.52
2019-05-18T03:22:01.510Z,6.39
2019-05-18T03:27:04.813Z,6.25
2019-05-18T03:32:08.128Z,6.36
2019-05-18T03:37:11.410Z,6.09
2019-05-18T03:42:14.713Z,6.25
2019-05-18T03:47:17.997Z,6.36
2019-05-18T03:52:21.305Z,6.27
2019-05-18T03:57:24.586Z,6.24
2019-05-18T04:02:27.879Z,6.24
2019-05-18T04:07:31.251Z,6.23
2019-05-18T04:12:34.559Z,6.34
2019-05-18T04:17:37.871Z,6.44
2019-05-18T04:22:41.182Z,6.36
2019-05-18T04:27:44.499Z,6.36
2019-05-18T04:32:47.788Z,6.45
2019-05-18T04:37:51.107Z,6.65
2019-05-18T04:42:54.408Z,6.84
2019-05-18T04:47:57.692Z,7.08
2019-05-18T04:53:01.001Z,7.29
2019-05-18T04:58:04.281Z,7.43
2019-05-18T05:03:07.574Z,7.39
2019-05-18T05:08:10.867Z,7.73
2019-05-18T05:13:14.143Z,7.66
2019-05-18T05:18:17.435Z,7.91
2019-05-18T05:23:20.785Z,8.05
2019-05-18T05:28:24.082Z,8.48
2019-05-18T05:33:27.356Z,8.86
2019-05-18T05:38:30.664Z,9.18
2019-05-18T05:43:33.972Z,9.27
2019-05-18T05:48:37.262Z,9.68
2019-05-18T05:53:40.547Z,9.81
2019-05-18T05:58:43.833Z,10.01
2019-05-18T06:03:47.148Z,10.29
2019-05-18T06:08:50.453Z,10.39
2019-05-18T06:13:53.748Z,10.61
2019-05-18T06:18:57.041Z,10.77
2019-05-18T06:24:00.360Z,11.12
2019-05-18T06:29:03.643Z,11.19
2019-05-18T06:34:06.975Z,11.38
2019-05-18T06:39:10.289Z,11.30
2019-05-18T06:44:13.599Z,11.32
2019-05-18T06:49:16.874Z,11.53
2019-05-18T06:54:20.185Z,11.65
2019-05-18T06:59:23.495Z,11.81
2019-05-18T07:04:26.764Z,11.93
2019-05-18T07:09:30.066Z,12.28
2019-05-18T07:14:33.371Z,12.35
2019-05-18T07:19:36.658Z,12.48
2019-05-18T07:24:39.975Z,12.82
2019-05-18T07:29:43.281Z,12.98
2019-05-18T07:34:46.568Z,13.18
2019-05-18T07:39:49.862Z,13.26
2019-05-18T07:44:53.184Z,13.42
2019-05-18T07:49:56.473Z,13.74
2019-05-18T07:54:59.784Z,14.37
2019-05-18T08:00:03.447Z,14.40
2019-05-18T08:05:08.411Z,14.50
2019-05-18T08:10:11.794Z,14.71
2019-05-18T08:15:15.851Z,14.80
2019-05-18T08:20:19.201Z,15.01
2019-05-18T08:25:22.492Z,15.06
2019-05-18T08:30:25.787Z,15.06
2019-05-18T08:35:29.097Z,14.90
2019-05-18T08:40:32.398Z,15.17
2019-05-18T08:45:35.688Z,15.48
2019-05-18T08:50:38.966Z,15.93
2019-05-18T08:55:42.275Z,15.59
2019-05-18T09:00:45.828Z,15.41
2019-05-18T09:05:49.107Z,15.75
2019-05-18T09:10:52.447Z,16.23
2019-05-18T09:15:55.792Z,16.01
2019-05-18T09:20:59.078Z,15.76
2019-05-18T09:26:02.508Z,16.06
2019-05-18T09:31:05.892Z,15.89
2019-05-18T09:36:09.254Z,16.04
2019-05-18T09:41:12.496Z,16.26
2019-05-18T09:46:15.837Z,16.10
2019-05-18T09:51:20.039Z,16.76
2019-05-18T09:56:23.385Z,16.79
2019-05-18T10:01:26.674Z,16.95
2019-05-18T10:06:31.552Z,17.09
2019-05-18T10:11:38.445Z,16.76
2019-05-18T10:16:40.066Z,16.99
2019-05-18T10:21:43.309Z,16.91
2019-05-18T10:26:46.721Z,17.53
2019-05-18T10:31:50.006Z,17.21
2019-05-18T10:36:53.306Z,17.69
2019-05-18T10:41:56.615Z,17.25
2019-05-18T10:46:59.967Z,17.32
2019-05-18T10:52:03.252Z,17.48
2019-05-18T10:57:06.537Z,18.19
2019-05-18T11:02:09.916Z,18.44
2019-05-18T11:07:13.258Z,18.38
2019-05-18T11:12:16.559Z,18.26
2019-05-18T11:17:19.868Z,18.63
2019-05-18T11:22:23.171Z,18.63
2019-05-18T11:27:26.487Z,18.52
2019-05-18T11:32:29.789Z,18.63
2019-05-18T11:37:33.112Z,18.90
2019-05-18T11:42:36.501Z,18.80
2019-05-18T11:47:39.892Z,19.07
2019-05-18T11:52:43.390Z,18.97
2019-05-18T11:57:46.723Z,19.08
2019-05-18T12:02:50.023Z,19.61
2019-05-18T12:07:53.329Z,19.88
2019-05-18T12:12:56.638Z,19.17
2019-05-18T12:17:59.938Z,19.73
2019-05-18T12:23:07.738Z,19.50
2019-05-18T12:28:08.413Z,20.12
2019-05-18T12:33:11.760Z,19.75
2019-05-18T12:38:15.054Z,20.05
2019-05-18T12:43:18.357Z,20.16
2019-05-18T12:48:21.677Z,20.71
2019-05-18T12:53:24.978Z,20.49
2019-05-18T12:58:28.274Z,20.24
2019-05-18T13:03:31.576Z,20.64
2019-05-18T13:08:34.866Z,20.57
2019-05-18T13:13:38.164Z,20.73
2019-05-18T13:18:41.463Z,20.95
2019-05-18T13:23:44.781Z,21.14
2019-05-18T13:28:48.097Z,21.09
2019-05-18T13:33:51.409Z,21.34
2019-05-18T13:38:54.692Z,21.80
2019-05-18T13:43:58.059Z,21.68
2019-05-18T13:49:01.438Z,21.33
2019-05-18T13:54:04.687Z,21.42
2019-05-18T13:59:07.986Z,21.97
2019-05-18T14:04:11.332Z,22.15
2019-05-18T14:09:14.676Z,22.24
2019-05-18T14:14:17.997Z,21.94
2019-05-18T14:19:21.283Z,22.33
2019-05-18T14:24:24.651Z,21.50
2019-05-18T14:29:27.937Z,22.10
2019-05-18T14:34:31.249Z,22.71
2019-05-18T14:39:34.595Z,23.18
2019-05-18T14:44:37.980Z,22.80
2019-05-18T14:49:41.294Z,23.28
2019-05-18T14:54:44.722Z,22.69
2019-05-18T14:59:48.032Z,22.43
2019-05-18T15:04:54.145Z,22.71
2019-05-18T15:09:56.551Z,23.61
2019-05-18T15:14:59.853Z,22.63
2019-05-18T15:20:03.816Z,23.20
2019-05-18T15:25:07.437Z,22.91
2019-05-18T15:30:10.945Z,23.24
2019-05-18T15:35:15.204Z,22.78
2019-05-18T15:40:18.703Z,22.75
2019-05-18T15:45:24.669Z,22.28
2019-05-18T15:50:27.220Z,22.89
2019-05-18T15:55:30.663Z,22.73
2019-05-18T16:00:34.041Z,22.69
2019-05-18T16:05:37.435Z,21.48
2019-05-18T16:10:40.755Z,21.60
2019-05-18T16:15:44.129Z,21.36
2019-05-18T16:20:47.538Z,21.63
2019-05-18T16:25:50.963Z,21.28
2019-05-18T16:30:54.379Z,21.03
2019-05-18T16:35:57.747Z,20.81
2019-05-18T16:41:01.157Z,20.60
2019-05-18T16:46:04.549Z,20.46
2019-05-18T16:51:07.841Z,20.31
2019-05-18T16:56:11.257Z,20.36
2019-05-18T17:01:14.678Z,20.31
2019-05-18T17:06:17.996Z,19.96
2019-05-18T17:11:21.301Z,19.88
2019-05-18T17:16:24.676Z,19.68
2019-05-18T17:21:28.035Z,19.71
2019-05-18T17:26:31.330Z,19.86
2019-05-18T17:31:34.656Z,19.44
2019-05-18T17:36:37.968Z,19.51
2019-05-18T17:41:41.554Z,19.45
2019-05-18T17:46:44.859Z,19.01
2019-05-18T17:51:48.164Z,19.09
2019-05-18T17:56:51.479Z,18.66
2019-05-18T18:01:54.937Z,18.84
2019-05-18T18:06:58.553Z,18.55
2019-05-18T18:12:02.206Z,18.41
2019-05-18T18:17:05.574Z,18.18
2019-05-18T18:22:08.961Z,18.04
2019-05-18T18:27:24.595Z,18.07
2019-05-18T18:32:17.523Z,17.68
2019-05-18T18:37:21.077Z,17.56
2019-05-18T18:42:24.485Z,17.67
2019-05-18T18:47:27.842Z,17.75
2019-05-18T18:52:31.141Z,17.63
2019-05-18T18:57:41.242Z,17.38
2019-05-18T19:02:39.774Z,17.18
2019-05-18T19:07:43.064Z,17.05
2019-05-18T19:12:46.435Z,16.99
2019-05-18T19:17:49.737Z,16.53
2019-05-18T19:22:53.212Z,16.55
2019-05-18T19:27:56.493Z,16.65
2019-05-18T19:32:59.824Z,16.56
2019-05-18T19:38:03.125Z,16.48
2019-05-18T19:43:06.404Z,16.46
2019-05-18T19:48:09.708Z,16.42
2019-05-18T19:53:12.990Z,16.33
2019-05-18T19:58:16.350Z,16.18
2019-05-18T20:03:19.834Z,16.11
2019-05-18T20:08:23.133Z,16.00
2019-05-18T20:13:26.426Z,15.82
2019-05-18T20:18:30.357Z,15.69
2019-05-18T20:23:33.675Z,15.48
2019-05-18T20:28:37.004Z,15.22
2019-05-18T20:33:40.644Z,15.11
2019-05-18T20:38:44.256Z,15.13
2019-05-18T20:43:47.602Z,14.94
2019-05-18T20:48:50.922Z,14.73
2019-05-18T20:53:54.228Z,14.88
2019-05-18T20:58:57.535Z,14.88
2019-05-18T21:04:00.838Z,14.88
2019-05-18T21:09:05.041Z,14.71
2019-05-18T21:14:08.417Z,14.78
2019-05-18T21:19:11.806Z,14.62
2019-05-18T21:24:15.127Z,14.65
2019-05-18T21:29:18.424Z,14.30
2019-05-18T21:34:21.744Z,14.62
2019-05-18T21:39:25.036Z,14.69
2019-05-18T21:44:28.334Z,14.62
2019-05-18T21:49:31.624Z,14.54
2019-05-18T21:54:35.121Z,14.55
2019-05-18T21:59:38.435Z,14.51
2019-05-18T22:04:41.768Z,14.40
2019-05-18T22:09:45.101Z,14.37
2019-05-18T22:14:48.403Z,14.27
2019-05-18T22:19:51.694Z,14.14
2019-05-18T22:24:54.989Z,14.08
2019-05-18T22:29:58.292Z,14.00
2019-05-18T22:35:01.714Z,13.91
2019-05-18T22:40:06.354Z,13.90
2019-05-18T22:45:10.410Z,13.76
2019-05-18T22:50:14.028Z,13.64
2019-05-18T22:55:17.593Z,13.73
2019-05-18T23:00:20.945Z,13.65
2019-05-18T23:05:24.262Z,13.53
2019-05-18T23:10:27.569Z,13.47
2019-05-18T23:15:30.925Z,13.43
2019-05-18T23:20:34.256Z,13.25
2019-05-18T23:25:37.551Z,13.20
2019-05-18T23:30:40.856Z,13.13
2019-05-18T23:35:44.220Z,12.96
2019-05-18T23:40:48.017Z,12.94
2019-05-18T23:45:51.320Z,12.82
2019-05-18T23:50:54.631Z,12.71
2019-05-18T23:55:58.112Z,12.69
